Time;durP1;ratioP1;P1;durP2;ratioP2;P2;SDS_P1;SDS_P2;PMS_P1;PMS_P2;Temp;Humidity;BMP_temperature;BMP_pressure;BME280_temperature;BME280_humidity;BME280_pressure;Samples;Min_cycle;Max_cycle;Signal;HPM_P1;HPM_P2
2022/05/24 00:00:49;;;;;;;2.50;2.30;;;15.80;99.90;;;;;;5018413;28;20443;-43
2022/05/24 00:03:19;;;;;;;2.97;2.27;;;15.70;99.90;;;;;;5018415;28;20450;-41
2022/05/24 00:05:47;;;;;;;3.13;2.57;;;15.70;99.90;;;;;;5017999;28;20452;-45
2022/05/24 00:08:14;;;;;;;3.47;2.47;;;15.70;99.90;;;;;;5018832;28;20480;-44
2022/05/24 00:10:42;;;;;;;5.50;2.77;;;15.60;99.90;;;;;;5018023;28;20586;-42
2022/05/24 00:13:11;;;;;;;2.67;2.38;;;15.60;99.90;;;;;;5018624;28;20405;-46
2022/05/24 00:15:39;;;;;;;2.30;2.03;;;15.50;99.90;;;;;;5017841;28;20267;-46
2022/05/24 00:18:11;;;;;;;2.10;2.00;;;15.50;99.90;;;;;;5018167;28;20453;-44
2022/05/24 00:20:42;;;;;;;2.47;2.30;;;15.40;99.90;;;;;;5017376;28;20217;-45
2022/05/24 00:23:11;;;;;;;1.92;1.77;;;15.40;99.90;;;;;;5018259;28;20761;-43
2022/05/24 00:25:41;;;;;;;3.75;3.03;;;15.20;99.90;;;;;;5017543;28;20209;-44
2022/05/24 00:28:10;;;;;;;9.00;2.85;;;15.20;99.90;;;;;;5018401;28;20226;-48
2022/05/24 00:30:37;;;;;;;3.60;3.30;;;15.20;99.90;;;;;;5017556;28;20274;-43
2022/05/24 00:33:05;;;;;;;3.80;3.23;;;15.20;99.90;;;;;;5018252;28;20214;-44
2022/05/24 00:35:32;;;;;;;2.85;2.17;;;15.20;99.90;;;;;;5017765;28;20472;-45
2022/05/24 00:38:00;;;;;;;2.40;2.13;;;15.20;99.90;;;;;;5018079;28;20517;-45
2022/05/24 00:40:39;;;;;;;2.45;2.35;;;15.20;99.90;;;;;;5017633;28;20210;-44
2022/05/24 00:43:26;;;;;;;2.63;2.42;;;15.20;99.90;;;;;;5017925;28;20209;-46
2022/05/24 00:46:00;;;;;;;3.40;2.60;;;15.20;99.90;;;;;;5018108;28;20234;-46
2022/05/24 00:49:05;;;;;;;3.47;2.40;;;15.20;99.90;;;;;;5017355;28;20441;-48
2022/05/24 00:51:47;;;;;;;2.95;2.22;;;15.10;99.90;;;;;;5007132;28;20555;-45
2022/05/24 00:54:15;;;;;;;3.53;3.15;;;15.10;99.90;;;;;;4998747;28;20210;-46
2022/05/24 00:56:52;;;;;;;3.75;2.92;;;15.10;99.90;;;;;;4992074;28;20414;-45
2022/05/24 00:59:26;;;;;;;5.68;3.50;;;15.10;99.90;;;;;;4978061;28;20584;-44
2022/05/24 01:01:55;;;;;;;3.03;2.40;;;15.10;99.90;;;;;;4978480;28;20231;-45
2022/05/24 01:04:23;;;;;;;3.33;2.95;;;15.20;99.90;;;;;;4978238;28;20232;-46
2022/05/24 01:06:50;;;;;;;2.20;2.10;;;15.20;99.90;;;;;;4978531;28;20209;-43
2022/05/24 01:09:28;;;;;;;2.90;2.60;;;15.20;99.90;;;;;;4978233;28;20230;-47
2022/05/24 01:11:59;;;;;;;3.00;2.80;;;15.10;99.90;;;;;;4978347;28;20288;-46
2022/05/24 01:14:27;;;;;;;5.45;3.63;;;15.00;99.90;;;;;;4978031;28;20215;-43
2022/05/24 01:16:56;;;;;;;2.92;2.70;;;15.10;99.90;;;;;;4978422;28;20212;-50
2022/05/24 01:19:41;;;;;;;4.65;3.35;;;15.10;99.90;;;;;;4978407;28;20302;-46
2022/05/24 01:22:34;;;;;;;7.07;2.50;;;15.10;99.90;;;;;;4978286;28;20236;-45
2022/05/24 01:25:16;;;;;;;4.95;2.97;;;15.00;99.90;;;;;;4977784;28;20241;-46
2022/05/24 01:27:44;;;;;;;2.42;2.22;;;15.10;99.90;;;;;;4977491;28;20213;-44
2022/05/24 01:30:11;;;;;;;3.85;3.05;;;15.00;99.90;;;;;;4978692;28;20211;-43
2022/05/24 01:38:17;;;;;;;3.30;3.00;;;15.00;99.90;;;;;;4978326;28;20274;-44
2022/05/24 01:40:47;;;;;;;4.68;3.55;;;15.00;99.90;;;;;;4978107;28;20487;-44
2022/05/24 01:43:19;;;;;;;3.92;3.30;;;15.10;99.90;;;;;;4978078;28;20418;-46
2022/05/24 01:46:06;;;;;;;3.45;3.15;;;15.10;99.90;;;;;;4977212;28;20236;-43
2022/05/24 01:48:47;;;;;;;3.20;2.90;;;15.10;99.90;;;;;;4977548;28;20264;-46
2022/05/24 01:51:18;;;;;;;2.88;2.63;;;15.20;99.90;;;;;;4977134;28;20570;-46
2022/05/24 01:53:50;;;;;;;3.95;3.65;;;15.30;99.90;;;;;;4977051;28;20211;-42
2022/05/24 01:56:58;;;;;;;3.67;2.80;;;15.20;99.90;;;;;;4976955;28;20208;-50
2022/05/24 01:59:27;;;;;;;3.05;2.83;;;15.30;99.90;;;;;;4974867;28;20341;-43
2022/05/24 02:01:58;;;;;;;3.55;3.25;;;15.40;99.90;;;;;;4976844;28;20230;-45
2022/05/24 02:04:32;;;;;;;6.20;3.60;;;15.30;99.90;;;;;;4976903;28;20217;-44
2022/05/24 02:07:13;;;;;;;2.80;2.60;;;15.20;99.90;;;;;;4977760;28;20530;-44
2022/05/24 02:09:43;;;;;;;6.43;3.15;;;15.20;99.90;;;;;;4978148;28;20229;-47
2022/05/24 02:12:18;;;;;;;3.67;3.30;;;15.20;99.90;;;;;;4977587;28;20237;-48
2022/05/24 02:14:52;;;;;;;3.67;3.15;;;15.30;99.90;;;;;;4983684;28;20199;-45
2022/05/24 02:17:26;;;;;;;2.88;2.47;;;15.30;99.90;;;;;;4983464;28;20207;-53
2022/05/24 02:19:59;;;;;;;3.63;3.33;;;15.20;99.90;;;;;;4980209;28;20277;-45
2022/05/24 02:22:28;;;;;;;4.40;3.28;;;15.20;99.90;;;;;;4978012;28;20291;-45
2022/05/24 02:25:22;;;;;;;4.05;3.65;;;15.10;99.90;;;;;;4977522;28;20422;-47
2022/05/24 02:27:49;;;;;;;4.15;3.05;;;15.10;99.90;;;;;;4976955;28;20436;-47
2022/05/24 02:30:23;;;;;;;4.97;3.78;;;15.10;99.90;;;;;;4977343;28;20522;-42
2022/05/24 02:32:51;;;;;;;3.50;3.10;;;15.00;99.90;;;;;;4959870;28;20258;-45
2022/05/24 02:35:19;;;;;;;3.05;2.75;;;14.90;99.90;;;;;;4977769;28;20220;-45
2022/05/24 02:37:46;;;;;;;4.10;3.70;;;14.90;99.90;;;;;;4976912;28;20207;-48
2022/05/24 02:42:59;;;;;;;4.03;3.47;;;14.80;99.90;;;;;;4977076;28;20240;-46
2022/05/24 02:45:27;;;;;;;4.25;3.85;;;14.80;99.90;;;;;;4976754;28;20596;-51
2022/05/24 02:47:54;;;;;;;4.15;3.33;;;14.80;99.90;;;;;;4976592;28;20211;-49
2022/05/24 02:50:23;;;;;;;4.75;4.35;;;14.80;99.90;;;;;;4959234;28;20244;-47
2022/05/24 02:52:50;;;;;;;3.53;3.22;;;14.70;99.90;;;;;;4976538;28;20320;-44
2022/05/24 02:55:17;;;;;;;4.25;3.13;;;14.70;99.90;;;;;;4976775;28;20198;-43
2022/05/24 02:57:44;;;;;;;4.47;4.07;;;14.70;99.90;;;;;;4976555;28;20206;-50
2022/05/24 03:00:15;;;;;;;3.58;3.25;;;14.70;99.90;;;;;;4976787;28;20202;-45
2022/05/24 03:02:42;;;;;;;6.00;4.65;;;14.70;99.90;;;;;;4977034;28;20237;-45
2022/05/24 03:05:12;;;;;;;4.00;3.50;;;14.70;99.90;;;;;;4976151;28;20210;-44
2022/05/24 03:10:27;;;;;;;3.92;3.58;;;14.80;99.90;;;;;;4975771;28;20533;-43
2022/05/24 03:15:41;;;;;;;4.13;3.55;;;14.80;99.90;;;;;;4976476;28;20209;-42
2022/05/24 03:18:11;;;;;;;4.05;3.75;;;14.70;99.90;;;;;;4975893;28;20228;-45
2022/05/24 03:20:39;;;;;;;3.67;3.13;;;14.70;99.90;;;;;;4975993;28;20279;-43
2022/05/24 03:23:06;;;;;;;4.82;4.13;;;14.70;99.90;;;;;;4978832;28;20210;-43
2022/05/24 03:25:34;;;;;;;4.82;4.10;;;14.70;99.90;;;;;;4979808;28;20205;-44
2022/05/24 03:28:03;;;;;;;5.20;3.53;;;14.70;99.90;;;;;;4980173;28;20209;-47
2022/05/24 03:30:32;;;;;;;3.65;3.20;;;14.70;99.90;;;;;;4980250;28;20457;-43
2022/05/24 03:32:59;;;;;;;5.43;3.78;;;14.80;99.90;;;;;;4979835;28;20226;-46
2022/05/24 03:35:27;;;;;;;4.93;4.35;;;14.80;99.90;;;;;;4979505;28;20483;-42
2022/05/24 03:37:54;;;;;;;4.28;3.88;;;14.80;99.90;;;;;;4979783;28;20272;-47
2022/05/24 03:40:21;;;;;;;4.47;3.97;;;14.80;99.90;;;;;;4979917;28;20221;-50
2022/05/24 03:42:51;;;;;;;10.25;5.05;;;14.80;99.90;;;;;;4979530;28;20304;-42
2022/05/24 03:45:19;;;;;;;5.28;4.05;;;14.80;99.90;;;;;;4979972;28;20214;-43
2022/05/24 03:47:46;;;;;;;3.10;2.90;;;14.90;99.90;;;;;;4980680;28;20210;-48
2022/05/24 03:50:14;;;;;;;4.30;3.67;;;14.90;99.90;;;;;;4981077;28;20444;-42
2022/05/24 03:52:42;;;;;;;4.70;4.00;;;14.80;99.90;;;;;;4979901;28;20235;-44
2022/05/24 03:55:09;;;;;;;3.30;2.95;;;14.90;99.90;;;;;;4979020;28;20246;-41
2022/05/24 04:00:24;;;;;;;4.40;3.47;;;15.10;99.90;;;;;;4979714;28;20537;-43
2022/05/24 04:02:51;;;;;;;6.82;3.70;;;15.20;99.90;;;;;;5005936;28;20264;-47
2022/05/24 04:05:18;;;;;;;5.30;4.70;;;15.20;99.90;;;;;;4994331;28;20473;-45
2022/05/24 04:07:45;;;;;;;4.63;4.13;;;15.20;99.90;;;;;;4983879;28;20209;-46
2022/05/24 04:10:14;;;;;;;7.53;4.10;;;15.20;99.90;;;;;;4998094;28;20229;-45
2022/05/24 04:12:41;;;;;;;4.65;4.15;;;15.30;99.90;;;;;;4998983;28;20456;-46
2022/05/24 04:15:09;;;;;;;5.32;4.20;;;15.20;99.90;;;;;;4998723;28;20206;-49
2022/05/24 04:17:37;;;;;;;7.35;5.10;;;15.40;99.90;;;;;;4998243;28;20588;-48
2022/05/24 04:20:05;;;;;;;5.40;4.20;;;15.40;99.90;;;;;;4998803;28;20215;-44
2022/05/24 04:22:32;;;;;;;4.75;3.97;;;15.40;99.90;;;;;;4998765;28;20229;-42
2022/05/24 04:25:00;;;;;;;4.57;3.03;;;15.40;99.90;;;;;;4999010;28;20209;-42
2022/05/24 04:27:28;;;;;;;11.50;3.90;;;15.20;99.90;;;;;;4998125;28;20348;-45
2022/05/24 04:29:55;;;;;;;4.43;4.03;;;15.20;99.90;;;;;;4998273;28;20300;-44
2022/05/24 04:32:22;;;;;;;3.85;3.55;;;15.20;99.90;;;;;;4995285;28;20243;-40
2022/05/24 04:34:49;;;;;;;3.88;3.47;;;15.20;99.90;;;;;;4978273;28;20407;-43
2022/05/24 04:37:17;;;;;;;5.50;5.05;;;15.30;99.90;;;;;;4978516;28;20211;-44
2022/05/24 04:39:45;;;;;;;5.28;3.13;;;15.30;99.90;;;;;;4979148;28;20421;-41
2022/05/24 04:42:24;;;;;;;7.30;5.10;;;15.40;99.90;;;;;;4979342;28;20227;-47
2022/05/24 04:44:58;;;;;;;4.17;3.77;;;15.50;99.90;;;;;;4979367;28;20427;-48
2022/05/24 04:47:28;;;;;;;3.67;3.33;;;15.40;99.90;;;;;;4981342;28;20407;-46
2022/05/24 04:49:58;;;;;;;9.75;5.63;;;15.50;99.90;;;;;;4981105;28;20480;-43
2022/05/24 04:52:30;;;;;;;5.03;4.37;;;15.70;99.90;;;;;;4979903;28;20255;-41
2022/05/24 04:54:57;;;;;;;5.53;3.95;;;15.90;99.90;;;;;;4979336;28;20496;-46
2022/05/24 04:57:25;;;;;;;4.40;4.00;;;16.10;99.90;;;;;;4978888;28;20223;-46
2022/05/24 04:59:52;;;;;;;5.23;4.73;;;16.10;99.90;;;;;;4978655;28;20431;-45
2022/05/24 05:02:21;;;;;;;4.47;3.90;;;16.20;99.90;;;;;;4978639;28;20436;-42
2022/05/24 05:04:49;;;;;;;4.80;4.33;;;16.10;99.90;;;;;;4978510;28;20472;-44
2022/05/24 05:07:19;;;;;;;5.22;3.75;;;16.20;99.90;;;;;;4978852;28;20628;-49
2022/05/24 05:09:50;;;;;;;6.03;3.87;;;16.10;99.90;;;;;;4978083;28;20236;-44
2022/05/24 05:12:18;;;;;;;3.93;3.63;;;16.10;99.90;;;;;;4977660;28;20469;-48
2022/05/24 05:14:46;;;;;;;6.23;4.13;;;16.20;99.90;;;;;;4977801;28;20424;-47
2022/05/24 05:17:16;;;;;;;8.73;4.57;;;16.20;99.90;;;;;;4978066;28;20452;-47
2022/05/24 05:19:45;;;;;;;4.03;3.70;;;16.20;99.90;;;;;;4977836;28;20459;-50
2022/05/24 05:22:19;;;;;;;6.87;4.57;;;16.30;99.90;;;;;;4978359;28;20462;-43
2022/05/24 05:24:46;;;;;;;8.93;4.63;;;16.50;99.90;;;;;;4977975;28;20456;-51
2022/05/24 05:27:14;;;;;;;4.67;4.27;;;16.60;99.90;;;;;;4977900;28;20446;-46
2022/05/24 05:32:30;;;;;;;5.53;4.27;;;16.60;99.90;;;;;;4990373;28;20501;-43
2022/05/24 05:34:59;;;;;;;5.60;4.67;;;16.50;99.90;;;;;;4998631;28;20442;-46
2022/05/24 05:37:29;;;;;;;6.80;4.40;;;16.70;99.90;;;;;;4998983;28;20452;-46
2022/05/24 05:39:56;;;;;;;4.43;4.03;;;16.90;99.90;;;;;;4998488;28;20420;-49
2022/05/24 05:42:24;;;;;;;4.40;4.00;;;17.30;99.90;;;;;;4998354;28;20440;-46
2022/05/24 05:44:52;;;;;;;4.97;4.07;;;17.70;99.90;;;;;;4997558;28;20447;-43
2022/05/24 05:47:19;;;;;;;4.67;3.90;;;18.30;99.90;;;;;;4998527;28;20512;-43
2022/05/24 05:49:47;;;;;;;4.40;3.60;;;18.90;99.90;;;;;;4998304;28;20819;-44
2022/05/24 05:52:15;;;;;;;3.67;3.37;;;19.50;99.90;;;;;;5002119;28;20719;-44
2022/05/24 05:54:42;;;;;;;4.67;3.87;;;19.90;99.90;;;;;;5002335;28;20442;-47
2022/05/24 05:57:13;;;;;;;5.30;3.73;;;19.60;99.90;;;;;;4997429;28;20435;-48
2022/05/24 05:59:40;;;;;;;4.27;3.87;;;19.50;99.90;;;;;;4997493;28;20464;-41
2022/05/24 06:02:08;;;;;;;4.40;3.97;;;19.40;99.90;;;;;;4996746;28;20459;-43
2022/05/24 06:04:36;;;;;;;5.80;4.17;;;19.10;99.90;;;;;;4994138;28;20429;-46
2022/05/24 06:07:03;;;;;;;7.13;3.63;;;19.30;99.90;;;;;;4996420;28;20706;-45
2022/05/24 06:09:31;;;;;;;4.17;3.87;;;19.60;99.90;;;;;;4997680;28;20557;-47
2022/05/24 06:11:59;;;;;;;3.10;2.80;;;19.70;99.90;;;;;;4996830;28;20456;-44
2022/05/24 06:14:26;;;;;;;7.43;3.67;;;19.70;99.90;;;;;;4996305;28;20422;-44
2022/05/24 06:17:13;;;;;;;5.00;4.10;;;20.10;99.90;;;;;;4996346;28;20439;-45
2022/05/24 06:19:41;;;;;;;4.13;3.67;;;21.10;99.90;;;;;;4995653;28;20746;-44
2022/05/24 06:22:08;;;;;;;4.70;4.17;;;22.00;99.90;;;;;;4996348;28;20465;-47
2022/05/24 06:24:35;;;;;;;5.17;3.80;;;22.80;99.90;;;;;;4995978;28;20450;-44
2022/05/24 06:27:03;;;;;;;8.43;4.07;;;23.40;99.90;;;;;;4996366;28;20424;-43
2022/05/24 06:29:36;;;;;;;9.63;5.20;;;23.50;99.90;;;;;;4996174;28;20461;-50
2022/05/24 06:32:04;;;;;;;5.70;3.60;;;23.40;99.90;;;;;;4978800;28;20666;-46
2022/05/24 06:34:31;;;;;;;5.57;4.23;;;24.10;99.90;;;;;;4995750;28;20447;-42
2022/05/24 06:36:59;;;;;;;4.53;3.50;;;24.40;99.90;;;;;;4995860;28;21268;-45
2022/05/24 06:39:27;;;;;;;6.37;4.20;;;24.60;99.90;;;;;;4996047;28;20514;-44
2022/05/24 06:41:59;;;;;;;7.07;3.90;;;24.60;99.90;;;;;;4995731;28;20466;-47
2022/05/24 06:44:26;;;;;;;4.87;3.40;;;24.80;99.90;;;;;;4998489;28;20444;-48
2022/05/24 06:46:54;;;;;;;6.00;3.53;;;24.90;99.90;;;;;;5000474;28;20439;-47
2022/05/24 06:49:22;;;;;;;3.50;3.23;;;25.20;99.90;;;;;;5001413;28;20744;-49
2022/05/24 06:51:49;;;;;;;6.13;3.50;;;26.00;99.90;;;;;;4998337;28;20503;-44
2022/05/24 06:54:20;;;;;;;5.80;5.10;;;25.00;99.90;;;;;;4995547;28;20441;-50
2022/05/24 06:56:47;;;;;;;3.80;3.47;;;24.70;99.90;;;;;;4995640;28;20804;-42
2022/05/24 07:04:47;;;;;;;5.20;3.57;;;26.30;99.90;;;;;;4990642;28;20519;-46
2022/05/24 07:07:15;;;;;;;3.93;3.60;;;27.80;99.90;;;;;;4996317;28;20439;-46
2022/05/24 07:09:43;;;;;;;4.43;4.00;;;28.80;98.80;;;;;;4996100;28;20850;-47
2022/05/24 07:12:10;;;;;;;3.83;3.47;;;30.20;95.50;;;;;;4996104;28;20544;-51
2022/05/24 07:14:38;;;;;;;3.10;2.90;;;31.50;92.10;;;;;;4990378;28;20447;-43
2022/05/24 07:17:05;;;;;;;3.97;3.53;;;32.90;86.70;;;;;;4986629;28;20455;-46
2022/05/24 07:19:33;;;;;;;5.10;3.67;;;33.60;82.20;;;;;;4994908;28;20537;-48
2022/05/24 07:22:00;;;;;;;4.50;3.57;;;34.00;77.40;;;;;;4990599;28;20538;-50
2022/05/24 07:24:28;;;;;;;3.30;3.00;;;33.20;78.00;;;;;;4982882;28;20446;-53
2022/05/24 07:26:55;;;;;;;4.23;3.30;;;34.10;74.50;;;;;;4993548;28;20663;-45
2022/05/24 07:29:23;;;;;;;3.60;3.30;;;35.00;73.20;;;;;;5003327;28;20443;-43
2022/05/24 07:31:51;;;;;;;12.83;3.40;;;36.70;68.30;;;;;;5003555;28;20490;-49
2022/05/24 07:34:19;;;;;;;3.37;3.07;;;37.70;64.30;;;;;;4992279;28;20494;-47
2022/05/24 07:36:46;;;;;;;3.90;3.57;;;38.50;59.50;;;;;;5015780;28;20796;-44
2022/05/24 07:39:14;;;;;;;10.00;3.67;;;37.40;59.70;;;;;;5000530;28;20522;-48
2022/05/24 07:47:33;;;;;;;3.00;2.80;;;32.50;70.00;;;;;;5000839;28;20441;-48
2022/05/24 07:50:01;;;;;;;3.70;3.40;;;31.00;73.70;;;;;;5012494;28;20517;-51
2022/05/24 07:52:28;;;;;;;8.00;3.40;;;29.90;76.60;;;;;;4997166;28;20470;-49
2022/05/24 07:54:55;;;;;;;4.03;2.70;;;29.30;80.20;;;;;;5006304;28;20447;-43
2022/05/24 07:57:23;;;;;;;4.57;3.30;;;29.20;82.90;;;;;;5014522;28;20461;-44
2022/05/24 07:59:51;;;;;;;3.17;2.80;;;29.20;80.90;;;;;;5002945;28;20494;-44
2022/05/24 08:02:20;;;;;;;3.87;3.23;;;30.00;80.30;;;;;;4994764;28;20466;-45
2022/05/24 08:04:47;;;;;;;8.00;3.13;;;31.60;76.50;;;;;;4995041;28;20479;-44
2022/05/24 08:07:16;;;;;;;5.80;4.03;;;34.40;71.30;;;;;;4994964;28;20489;-47
2022/05/24 08:09:43;;;;;;;4.40;3.23;;;36.40;65.80;;;;;;4996770;28;20474;-47
2022/05/24 08:12:10;;;;;;;3.60;3.30;;;35.90;65.50;;;;;;4997844;28;20535;-47
2022/05/24 08:14:37;;;;;;;7.97;3.50;;;33.90;68.90;;;;;;4996824;28;20706;-48
2022/05/24 08:17:04;;;;;;;8.27;2.77;;;32.40;72.20;;;;;;5005631;28;20447;-46
2022/05/24 08:19:37;;;;;;;3.87;3.17;;;31.40;74.60;;;;;;4996290;28;20700;-49
2022/05/24 08:22:06;;;;;;;3.57;3.10;;;32.00;74.60;;;;;;5006552;28;20744;-49
2022/05/24 08:24:33;;;;;;;3.97;3.63;;;33.70;71.80;;;;;;4997793;28;20775;-49
2022/05/24 08:27:02;;;;;;;4.10;2.70;;;35.00;67.40;;;;;;4997993;28;20513;-47
2022/05/24 08:29:29;;;;;;;2.73;2.53;;;35.90;65.90;;;;;;4997996;28;20440;-46
2022/05/24 08:31:57;;;;;;;5.53;3.17;;;36.10;65.10;;;;;;5000569;28;20819;-47
2022/05/24 08:34:24;;;;;;;5.60;2.60;;;34.80;67.70;;;;;;4997402;28;20697;-43
2022/05/24 08:36:52;;;;;;;4.57;2.67;;;33.10;72.10;;;;;;4998506;28;20789;-48
2022/05/24 08:39:19;;;;;;;2.63;2.43;;;31.70;74.60;;;;;;4995059;28;20774;-49
2022/05/24 08:42:05;;;;;;;3.53;2.50;;;30.60;77.40;;;;;;4983765;28;20482;-44
2022/05/24 08:51:09;;;;;;;3.50;2.60;;;30.50;80.30;;;;;;4976847;28;20480;-46
2022/05/24 08:53:42;;;;;;;5.80;3.10;;;31.80;78.00;;;;;;4977984;28;20511;-48
2022/05/24 08:56:23;;;;;;;2.00;1.90;;;32.30;75.50;;;;;;4978036;28;20442;-46
2022/05/24 08:58:59;;;;;;;3.57;2.20;;;32.30;74.90;;;;;;4977812;28;20637;-46
2022/05/24 09:01:35;;;;;;;5.23;3.00;;;32.50;75.00;;;;;;4988956;28;20487;-47
2022/05/24 09:04:07;;;;;;;5.33;3.20;;;33.40;73.50;;;;;;5000854;28;20466;-47
2022/05/24 09:06:58;;;;;;;4.90;2.47;;;34.50;71.40;;;;;;4984675;28;20641;-50
2022/05/24 09:09:28;;;;;;;8.10;2.47;;;36.30;67.70;;;;;;4977086;28;20776;-45
2022/05/24 09:12:10;;;;;;;3.70;3.40;;;36.60;66.80;;;;;;4981481;28;20495;-45
2022/05/24 09:18:27;;;;;;;2.53;2.33;;;33.80;70.80;;;;;;4980941;28;20477;-46
2022/05/24 09:20:55;;;;;;;4.20;2.33;;;32.40;74.00;;;;;;4961491;28;20462;-46
2022/05/24 09:23:41;;;;;;;4.50;3.30;;;31.80;75.70;;;;;;4981321;28;20804;-43
2022/05/24 09:26:20;;;;;;;2.80;2.60;;;31.20;77.80;;;;;;4997927;28;20674;-47
2022/05/24 09:28:49;;;;;;;2.50;2.30;;;30.70;79.60;;;;;;4996254;28;20444;-48
2022/05/24 09:31:31;;;;;;;2.47;2.30;;;30.70;80.40;;;;;;4995736;28;20484;-51
2022/05/24 09:34:12;;;;;;;3.57;2.20;;;30.80;80.70;;;;;;4981294;28;20445;-45
2022/05/24 09:36:50;;;;;;;4.47;2.30;;;30.60;80.40;;;;;;4982781;28;20531;-47
2022/05/24 09:39:30;;;;;;;3.80;2.47;;;31.00;80.30;;;;;;4991233;28;20449;-45
2022/05/24 09:42:02;;;;;;;3.20;2.13;;;31.40;79.30;;;;;;4999598;28;20467;-48
2022/05/24 09:44:45;;;;;;;5.70;1.83;;;31.90;78.30;;;;;;4988827;28;20699;-47
2022/05/24 09:47:34;;;;;;;2.40;2.20;;;32.00;77.90;;;;;;5006657;28;20494;-45
2022/05/24 09:50:24;;;;;;;1.97;1.87;;;31.90;78.20;;;;;;5016370;28;20726;-44
2022/05/24 09:53:03;;;;;;;4.90;2.17;;;31.80;78.80;;;;;;5016131;28;20486;-46
2022/05/24 09:55:49;;;;;;;2.30;2.10;;;31.70;79.30;;;;;;5009430;28;20502;-48
2022/05/24 09:58:20;;;;;;;4.60;2.73;;;31.80;78.10;;;;;;5016277;28;20785;-47
2022/05/24 10:00:58;;;;;;;2.87;2.20;;;31.30;79.50;;;;;;5015727;28;20470;-49
2022/05/24 10:03:30;;;;;;;2.27;2.17;;;30.90;81.40;;;;;;5015570;28;20515;-47
2022/05/24 10:06:07;;;;;;;2.43;2.10;;;31.00;80.30;;;;;;5000041;28;20459;-44
2022/05/24 10:08:40;;;;;;;8.57;2.63;;;30.80;80.60;;;;;;4980007;28;20450;-47
2022/05/24 10:11:20;;;;;;;2.03;1.93;;;30.80;81.60;;;;;;4980518;28;20499;-47
2022/05/24 10:14:23;;;;;;;5.90;2.10;;;30.70;82.30;;;;;;4978853;28;20513;-46
2022/05/24 10:16:56;;;;;;;3.73;3.43;;;30.70;80.30;;;;;;4978845;28;20505;-41
2022/05/24 10:19:57;;;;;;;3.13;2.80;;;30.60;82.80;;;;;;4980214;28;20441;-47
2022/05/24 10:23:01;;;;;;;5.83;3.30;;;30.60;82.60;;;;;;4978207;28;20463;-50
2022/05/24 10:25:38;;;;;;;7.03;3.27;;;30.30;82.80;;;;;;4996482;28;20491;-43
2022/05/24 10:28:26;;;;;;;9.50;2.50;;;30.00;83.70;;;;;;4996896;28;20537;-44
2022/05/24 10:31:25;;;;;;;5.30;3.17;;;29.80;84.80;;;;;;4994284;28;20909;-45
2022/05/24 10:40:01;;;;;;;3.10;2.30;;;30.00;85.50;;;;;;4995724;28;20522;-42
2022/05/24 10:43:02;;;;;;;8.80;3.70;;;30.10;85.30;;;;;;4995832;28;20658;-47
2022/05/24 10:45:50;;;;;;;7.77;2.70;;;30.30;85.30;;;;;;4978441;28;20444;-47
2022/05/24 10:48:36;;;;;;;4.47;2.53;;;30.30;84.40;;;;;;4979623;28;20444;-49
2022/05/24 10:51:48;;;;;;;20.23;3.03;;;30.30;85.00;;;;;;4979734;28;20564;-48
2022/05/24 10:54:43;;;;;;;2.33;2.13;;;30.40;84.80;;;;;;4913843;29;20889;-43
2022/05/24 10:57:21;;;;;;;3.57;1.80;;;30.30;83.90;;;;;;4980286;28;20539;-49
2022/05/24 11:00:12;;;;;;;5.33;2.23;;;30.40;83.80;;;;;;4978560;28;20479;-45
2022/05/24 11:03:06;;;;;;;5.83;2.77;;;30.90;83.50;;;;;;4979941;28;20464;-42
2022/05/24 11:05:44;;;;;;;2.03;1.70;;;30.80;82.80;;;;;;4975897;28;20449;-47
2022/05/24 11:08:41;;;;;;;2.27;1.97;;;30.50;83.50;;;;;;4979672;28;20507;-44
2022/05/24 11:11:29;;;;;;;2.40;1.73;;;30.30;84.00;;;;;;4994814;28;20486;-50
2022/05/24 11:14:04;;;;;;;2.53;2.33;;;30.10;84.70;;;;;;4989393;28;20766;-50
2022/05/24 11:16:39;;;;;;;1.50;1.40;;;30.00;84.70;;;;;;4994562;28;20470;-45
2022/05/24 11:19:39;;;;;;;6.73;2.63;;;29.80;85.60;;;;;;4994529;28;20758;-41
2022/05/24 11:22:23;;;;;;;2.03;1.90;;;30.20;84.00;;;;;;4994541;28;20459;-47
2022/05/24 11:25:01;;;;;;;2.53;2.33;;;30.10;85.20;;;;;;5017185;28;20434;-54
2022/05/24 11:27:33;;;;;;;2.10;2.00;;;30.30;85.20;;;;;;4988172;28;20875;-43
2022/05/24 11:30:12;;;;;;;4.03;2.47;;;30.60;84.50;;;;;;4977691;28;20858;-47
2022/05/24 11:32:51;;;;;;;3.13;2.83;;;30.50;85.00;;;;;;4996528;28;20463;-44
2022/05/24 11:35:18;;;;;;;6.67;3.13;;;30.40;85.30;;;;;;4988523;28;20804;-43
2022/05/24 11:37:51;;;;;;;4.40;2.27;;;30.70;84.50;;;;;;4981067;28;20440;-46
2022/05/24 11:40:29;;;;;;;1.77;1.67;;;30.40;85.40;;;;;;5004504;28;20432;-48
2022/05/24 11:43:00;;;;;;;3.23;2.40;;;30.50;84.90;;;;;;5014777;28;20517;-46
2022/05/24 11:45:31;;;;;;;2.60;2.40;;;30.80;84.20;;;;;;5019010;28;20442;-44
2022/05/24 11:48:05;;;;;;;2.93;2.63;;;30.30;84.80;;;;;;5019585;28;20507;-47
2022/05/24 11:50:59;;;;;;;3.20;2.50;;;29.90;85.50;;;;;;5018117;28;20479;-46
2022/05/24 11:53:41;;;;;;;3.90;2.67;;;29.60;87.10;;;;;;4994565;28;20497;-44
2022/05/24 11:56:09;;;;;;;1.87;1.77;;;29.30;88.60;;;;;;4998098;28;20443;-43
2022/05/24 11:58:36;;;;;;;2.60;2.50;;;29.30;87.30;;;;;;5007201;28;20695;-48
2022/05/24 12:01:17;;;;;;;2.77;2.57;;;29.40;88.30;;;;;;5015209;28;20496;-44
2022/05/24 12:10:05;;;;;;;5.47;5.00;;;28.70;88.40;;;;;;5018083;28;20509;-45
2022/05/24 12:12:44;;;;;;;2.50;2.30;;;28.40;88.90;;;;;;4996568;28;20858;-46
2022/05/24 12:15:21;;;;;;;2.90;2.30;;;28.40;88.60;;;;;;4996597;28;20758;-47
2022/05/24 12:17:59;;;;;;;10.90;2.57;;;28.70;88.70;;;;;;4998698;28;21070;-45
2022/05/24 12:20:34;;;;;;;2.00;1.90;;;29.00;88.60;;;;;;4998419;28;20435;-45
2022/05/24 12:23:04;;;;;;;2.23;2.00;;;29.00;88.60;;;;;;4998753;28;20458;-43
2022/05/24 12:25:52;;;;;;;7.30;4.90;;;28.70;88.20;;;;;;4991776;28;20451;-45
2022/05/24 12:28:32;;;;;;;6.70;3.17;;;28.70;88.30;;;;;;4980522;28;20424;-44
2022/05/24 12:31:15;;;;;;;3.13;2.53;;;28.70;88.70;;;;;;4979319;28;20498;-48
2022/05/24 12:34:12;;;;;;;2.37;2.17;;;28.80;88.90;;;;;;5009148;28;20446;-43
2022/05/24 12:36:39;;;;;;;12.43;3.90;;;29.20;88.50;;;;;;5017830;28;20441;-49
2022/05/24 12:39:27;;;;;;;9.33;4.23;;;29.70;87.30;;;;;;5017446;28;20453;-46
2022/05/24 12:42:01;;;;;;;3.77;2.53;;;30.00;87.20;;;;;;5017504;28;20550;-43
2022/05/24 12:44:38;;;;;;;3.00;2.80;;;29.90;86.20;;;;;;5017394;28;20441;-50
2022/05/24 12:47:06;;;;;;;3.63;3.20;;;29.60;86.30;;;;;;5017168;28;20442;-48
2022/05/24 12:49:54;;;;;;;3.70;3.00;;;29.40;87.50;;;;;;5016744;28;20650;-42
2022/05/24 12:52:29;;;;;;;4.07;2.60;;;29.40;86.20;;;;;;5017714;28;20504;-47
2022/05/24 12:55:03;;;;;;;4.90;2.40;;;29.60;86.30;;;;;;5016754;28;20465;-45
2022/05/24 12:57:47;;;;;;;2.87;1.90;;;29.70;85.70;;;;;;4989258;28;20657;-44
2022/05/24 13:00:24;;;;;;;5.53;3.63;;;29.40;86.10;;;;;;4990057;28;20503;-45
2022/05/24 13:02:54;;;;;;;4.00;3.40;;;29.40;86.70;;;;;;4989801;28;20858;-47
2022/05/24 13:05:35;;;;;;;4.57;2.83;;;29.20;87.50;;;;;;4994462;28;20802;-47
2022/05/24 13:08:03;;;;;;;3.80;2.67;;;29.00;87.40;;;;;;4983640;28;20475;-47
2022/05/24 13:10:36;;;;;;;2.30;2.10;;;28.80;88.00;;;;;;4983792;28;20647;-47
2022/05/24 13:13:10;;;;;;;2.70;2.50;;;28.80;88.20;;;;;;4985873;28;20467;-51
2022/05/24 13:15:50;;;;;;;3.63;3.17;;;29.00;88.20;;;;;;4984385;28;20453;-45
2022/05/24 13:18:26;;;;;;;3.27;2.43;;;29.30;86.50;;;;;;4986818;28;20463;-46
2022/05/24 13:21:01;;;;;;;4.40;2.40;;;29.50;86.30;;;;;;4980975;28;20451;-46
2022/05/24 13:23:36;;;;;;;2.43;2.27;;;29.80;85.90;;;;;;4993003;28;20451;-44
2022/05/24 13:26:05;;;;;;;3.07;2.87;;;29.60;85.90;;;;;;4993334;28;20443;-47
2022/05/24 13:28:44;;;;;;;3.03;2.80;;;29.50;86.30;;;;;;4977058;28;20679;-51
2022/05/24 13:34:17;;;;;;;5.13;3.13;;;29.00;88.20;;;;;;4977244;28;20436;-51
2022/05/24 13:36:56;;;;;;;3.23;3.03;;;28.80;89.90;;;;;;4977163;28;20439;-47
2022/05/24 13:39:25;;;;;;;4.17;2.60;;;28.70;90.30;;;;;;4976831;28;20454;-45
2022/05/24 13:42:05;;;;;;;3.27;2.53;;;28.90;90.30;;;;;;4977035;28;20535;-46
2022/05/24 13:45:13;;;;;;;3.20;3.00;;;29.20;89.40;;;;;;4982622;28;20475;-49
2022/05/24 13:47:54;;;;;;;3.77;3.20;;;29.20;89.00;;;;;;4991825;28;20459;-42
2022/05/24 13:50:36;;;;;;;3.37;2.53;;;28.90;89.90;;;;;;4998019;28;20770;-44
2022/05/24 13:53:08;;;;;;;3.20;2.90;;;28.80;90.30;;;;;;4997047;28;20630;-44
2022/05/24 13:55:39;;;;;;;5.20;3.10;;;28.80;90.30;;;;;;4982804;28;20495;-47
2022/05/24 13:58:16;;;;;;;2.90;2.70;;;28.90;90.30;;;;;;4993453;28;20443;-48
2022/05/24 14:00:59;;;;;;;9.00;3.40;;;28.60;90.60;;;;;;5004024;28;20453;-41
2022/05/24 14:03:53;;;;;;;5.90;3.50;;;28.60;90.70;;;;;;4977471;28;20436;-45
2022/05/24 14:06:25;;;;;;;4.43;3.40;;;28.80;90.60;;;;;;4993822;28;20447;-41
2022/05/24 14:08:55;;;;;;;3.73;2.53;;;28.90;90.50;;;;;;4991860;28;20984;-43
2022/05/24 14:11:28;;;;;;;7.80;2.40;;;28.60;90.80;;;;;;4995225;28;20495;-50
2022/05/24 14:13:55;;;;;;;2.40;2.20;;;28.50;90.90;;;;;;4996094;28;20540;-48